Terminal Aerodrome Forecast
Issued by NWS Missoula, MT

Home | Current Version | Previous Version | Text Only | Print | Product List | Glossary On
Versions: 1 2 3 4 5 6 7 8 9 10 11 12 13
000
FTUS45 KMSO 030534
TAFMSO
TAF
KMSO 030534Z 0306/0406 32009KT P6SM VCSH OVC050
     FM030700 VRB05KT P6SM -RA OVC035
     FM032100 33009KT P6SM VCSH BKN035=

USA.gov is the U.S. government's official web portal to all federal, state and local government web resources and services.